Time,TemperatureF,DewpointF,PressureIn,WindDirection,WindDirectionDegrees,WindSpeedMPH,WindSpeedGustMPH,Humidity,HourlyPrecipIn,Conditions,Clouds,dailyrainin,SoftwareType,DateUTC
2013-04-12 00:03:00,79.0,76.0,29.88,SE,140,12.0,19.0,90,0.00,,,0.00,,2013-04-12 04:03:00,
2013-04-12 00:13:00,79.0,76.0,29.88,SE,140,12.0,19.0,90,0.00,,,0.00,,2013-04-12 04:13:00,
2013-04-12 00:23:00,79.0,75.0,29.88,SSE,153,16.0,22.0,89,0.00,,,0.00,,2013-04-12 04:23:00,
2013-04-12 00:33:00,79.0,75.0,29.88,SSE,163,15.0,22.0,89,0.00,,,0.00,,2013-04-12 04:33:00,
2013-04-12 00:43:00,79.0,75.0,29.88,SSE,163,15.0,22.0,89,0.00,,,0.00,,2013-04-12 04:43:00,
2013-04-12 00:53:00,79.0,76.0,29.87,SSE,163,16.0,22.0,90,0.00,,,0.00,,2013-04-12 04:53:00,
2013-04-12 01:03:00,79.0,75.0,29.87,SSE,153,16.0,24.0,89,0.00,,,0.00,,2013-04-12 05:03:00,
2013-04-12 01:12:00,79.0,75.0,29.87,SSE,153,16.0,24.0,89,0.00,,,0.00,,2013-04-12 05:12:00,
2013-04-12 01:23:00,79.0,75.0,29.86,SSE,163,19.0,26.0,89,0.00,,,0.00,,2013-04-12 05:23:00,
2013-04-12 01:32:00,79.0,75.0,29.86,SSE,163,19.0,26.0,89,0.00,,,0.00,,2013-04-12 05:32:00,
2013-04-12 01:42:00,79.0,75.0,29.86,SSE,163,19.0,26.0,89,0.00,,,0.00,,2013-04-12 05:42:00,
2013-04-12 01:52:00,79.0,76.0,29.85,South,173,16.0,23.0,90,0.00,,,0.00,,2013-04-12 05:52:00,
2013-04-12 02:02:00,79.0,76.0,29.85,SSE,158,16.0,22.0,91,0.00,,,0.00,,2013-04-12 06:02:00,
2013-04-12 02:12:00,79.0,76.0,29.85,SSE,158,16.0,22.0,91,0.00,,,0.00,,2013-04-12 06:12:00,
2013-04-12 02:22:00,79.0,76.0,29.85,South,178,17.0,23.0,91,0.00,,,0.00,,2013-04-12 06:22:00,
2013-04-12 02:32:00,79.0,76.0,29.85,SSE,153,15.0,21.0,91,0.00,,,0.00,,2013-04-12 06:32:00,
2013-04-12 02:42:00,79.0,76.0,29.85,SSE,153,15.0,21.0,91,0.00,,,0.00,,2013-04-12 06:42:00,
2013-04-12 02:52:00,79.0,76.0,29.86,SE,146,16.0,22.0,92,0.00,,,0.00,,2013-04-12 06:52:00,
2013-04-12 03:02:00,79.0,76.0,29.86,SE,127,14.0,19.0,92,0.00,,,0.00,,2013-04-12 07:02:00,
2013-04-12 03:12:00,79.0,76.0,29.86,SE,127,14.0,19.0,92,0.00,,,0.00,,2013-04-12 07:12:00,
2013-04-12 03:22:00,79.0,76.0,29.86,South,169,12.0,19.0,92,0.00,,,0.00,,2013-04-12 07:22:00,
2013-04-12 03:32:00,79.0,76.0,29.87,South,171,12.0,18.0,92,0.00,,,0.00,,2013-04-12 07:32:00,
2013-04-12 03:42:00,79.0,76.0,29.87,South,171,12.0,18.0,92,0.00,,,0.00,,2013-04-12 07:42:00,
2013-04-12 03:52:00,79.0,76.0,29.87,South,179,11.0,16.0,92,0.00,,,0.00,,2013-04-12 07:52:00,
2013-04-12 04:03:00,79.0,76.0,29.87,SSE,163,10.0,14.0,92,0.00,,,0.00,,2013-04-12 08:03:00,
2013-04-12 04:12:00,79.0,76.0,29.87,SSE,163,10.0,14.0,92,0.00,,,0.00,,2013-04-12 08:12:00,
2013-04-12 04:22:00,79.0,76.0,29.87,South,175,9.0,13.0,92,0.00,,,0.00,,2013-04-12 08:22:00,
2013-04-12 04:32:00,78.0,75.0,29.88,South,171,8.0,13.0,92,0.00,,,0.00,,2013-04-12 08:32:00,
2013-04-12 04:42:00,78.0,75.0,29.88,South,171,8.0,13.0,92,0.00,,,0.00,,2013-04-12 08:42:00,
2013-04-12 04:52:00,78.0,75.0,29.88,South,180,8.0,11.0,92,0.00,,,0.00,,2013-04-12 08:52:00,
2013-04-12 05:02:00,78.0,75.0,29.88,SSE,163,8.0,11.0,92,0.00,,,0.00,,2013-04-12 09:02:00,
2013-04-12 05:12:00,78.0,75.0,29.88,SSE,163,8.0,11.0,92,0.00,,,0.00,,2013-04-12 09:12:00,
2013-04-12 05:22:00,78.0,75.0,29.88,SSE,153,6.0,10.0,92,0.00,,,0.00,,2013-04-12 09:22:00,
2013-04-12 05:33:00,78.0,75.0,29.89,SSE,153,5.0,8.0,92,0.00,,,0.00,,2013-04-12 09:33:00,
2013-04-12 05:43:00,78.0,75.0,29.89,SSE,153,5.0,8.0,92,0.00,,,0.00,,2013-04-12 09:43:00,
2013-04-12 05:53:00,78.0,76.0,29.89,SSE,158,6.0,10.0,93,0.00,,,0.00,,2013-04-12 09:53:00,
2013-04-12 06:03:00,78.0,76.0,29.89,SSE,158,6.0,10.0,93,0.00,,,0.00,,2013-04-12 10:03:00,
2013-04-12 06:13:00,78.0,76.0,29.89,SSE,148,7.0,10.0,93,0.00,,,0.00,,2013-04-12 10:13:00,
2013-04-12 06:23:00,78.0,76.0,29.89,SSE,148,7.0,10.0,93,0.00,,,0.00,,2013-04-12 10:23:00,
2013-04-12 06:34:00,78.0,76.0,29.89,SSE,163,6.0,8.0,93,0.00,,,0.00,,2013-04-12 10:34:00,
2013-04-12 06:42:00,78.0,76.0,29.89,SSE,163,6.0,8.0,93,0.00,,,0.00,,2013-04-12 10:42:00,
2013-04-12 06:52:00,78.0,76.0,29.90,SSE,163,5.0,7.0,93,0.00,,,0.00,,2013-04-12 10:52:00,
2013-04-12 07:03:00,78.0,76.0,29.91,SSE,167,4.0,7.0,93,0.00,,,0.00,,2013-04-12 11:03:00,
2013-04-12 07:13:00,78.0,76.0,29.91,SSE,167,4.0,7.0,93,0.00,,,0.00,,2013-04-12 11:13:00,
2013-04-12 07:22:00,78.0,76.0,29.91,South,177,5.0,8.0,93,0.00,,,0.00,,2013-04-12 11:22:00,
2013-04-12 07:32:00,78.0,76.0,29.91,South,175,5.0,7.0,93,0.00,,,0.00,,2013-04-12 11:32:00,
2013-04-12 07:42:00,78.0,76.0,29.91,South,175,5.0,7.0,93,0.00,,,0.00,,2013-04-12 11:42:00,
2013-04-12 07:52:00,78.0,76.0,29.91,SSE,153,6.0,9.0,93,0.00,,,0.00,,2013-04-12 11:52:00,
2013-04-12 08:02:00,78.0,76.0,29.91,SSE,167,7.0,9.0,93,0.00,,,0.00,,2013-04-12 12:02:00,
2013-04-12 08:13:00,78.0,76.0,29.91,SSE,167,7.0,9.0,93,0.00,,,0.00,,2013-04-12 12:13:00,
2013-04-12 08:22:00,78.0,76.0,29.92,SSE,163,7.0,9.0,93,0.00,,,0.00,,2013-04-12 12:22:00,
2013-04-12 08:33:00,79.0,77.0,29.92,SSE,158,7.0,10.0,93,0.00,,,0.00,,2013-04-12 12:33:00,
2013-04-12 08:42:00,79.0,77.0,29.92,SSE,158,7.0,10.0,93,0.00,,,0.00,,2013-04-12 12:42:00,
2013-04-12 08:53:00,79.0,77.0,29.92,SSE,149,4.0,10.0,93,0.00,,,0.00,,2013-04-12 12:53:00,
2013-04-12 09:03:00,79.0,76.0,29.92,SSE,153,8.0,11.0,92,0.00,,,0.00,,2013-04-12 13:03:00,
2013-04-12 09:12:00,79.0,76.0,29.92,SSE,153,8.0,11.0,92,0.00,,,0.00,,2013-04-12 13:12:00,
2013-04-12 09:22:00,80.0,77.0,29.92,SSE,147,8.0,11.0,91,0.00,,,0.00,,2013-04-12 13:22:00,
2013-04-12 09:32:00,80.0,77.0,29.92,South,173,8.0,13.0,90,0.00,,,0.00,,2013-04-12 13:32:00,
2013-04-12 09:42:00,80.0,77.0,29.92,South,173,8.0,13.0,90,0.00,,,0.00,,2013-04-12 13:42:00,
2013-04-12 09:53:00,81.0,77.0,29.93,South,170,9.0,13.0,88,0.00,,,0.00,,2013-04-12 13:53:00,
2013-04-12 10:03:00,81.0,77.0,29.93,South,170,9.0,13.0,88,0.00,,,0.00,,2013-04-12 14:03:00,
2013-04-12 10:13:00,81.0,77.0,29.93,South,170,9.0,13.0,88,0.00,,,0.00,,2013-04-12 14:13:00,
2013-04-12 10:23:00,82.0,77.0,29.93,SSE,158,9.0,13.0,85,0.00,,,0.00,,2013-04-12 14:23:00,
2013-04-12 10:33:00,82.0,77.0,29.93,SSW,198,11.0,13.0,84,0.00,,,0.00,,2013-04-12 14:33:00,
2013-04-12 10:43:00,82.0,77.0,29.93,SSW,198,11.0,13.0,84,0.00,,,0.00,,2013-04-12 14:43:00,
2013-04-12 10:54:00,82.0,76.0,29.93,SSE,163,9.0,15.0,83,0.00,,,0.00,,2013-04-12 14:54:00,
2013-04-12 11:03:00,83.0,77.0,29.93,South,174,9.0,14.0,83,0.00,,,0.00,,2013-04-12 15:03:00,
2013-04-12 11:12:00,83.0,77.0,29.93,South,174,9.0,14.0,83,0.00,,,0.00,,2013-04-12 15:12:00,
2013-04-12 11:22:00,83.0,77.0,29.94,South,176,10.0,14.0,82,0.00,,,0.00,,2013-04-12 15:22:00,
2013-04-12 11:33:00,83.0,77.0,29.94,South,170,10.0,15.0,82,0.00,,,0.00,,2013-04-12 15:33:00,
2013-04-12 11:43:00,83.0,77.0,29.94,South,170,10.0,15.0,82,0.00,,,0.00,,2013-04-12 15:43:00,
2013-04-12 11:53:00,83.0,77.0,29.94,South,177,10.0,13.0,82,0.00,,,0.00,,2013-04-12 15:53:00,
2013-04-12 12:04:00,84.0,78.0,29.94,South,171,8.0,14.0,82,0.00,,,0.00,,2013-04-12 16:04:00,
2013-04-12 12:13:00,84.0,78.0,29.94,South,171,8.0,14.0,82,0.00,,,0.00,,2013-04-12 16:13:00,
2013-04-12 12:23:00,84.0,77.0,29.93,SSE,167,10.0,14.0,80,0.00,,,0.00,,2013-04-12 16:23:00,
2013-04-12 12:33:00,85.0,78.0,29.93,SSE,167,10.0,12.0,80,0.00,,,0.00,,2013-04-12 16:33:00,
2013-04-12 12:42:00,85.0,78.0,29.93,SSE,167,10.0,12.0,80,0.00,,,0.00,,2013-04-12 16:42:00,
2013-04-12 12:53:00,85.0,78.0,29.93,SSE,158,11.0,14.0,79,0.00,,,0.00,,2013-04-12 16:53:00,
2013-04-12 13:03:00,85.0,78.0,29.93,SSE,153,11.0,14.0,79,0.00,,,0.00,,2013-04-12 17:03:00,
2013-04-12 13:12:00,85.0,78.0,29.93,SSE,153,11.0,14.0,79,0.00,,,0.00,,2013-04-12 17:12:00,
2013-04-12 13:23:00,86.0,79.0,29.93,SE,137,10.0,14.0,79,0.00,,,0.00,,2013-04-12 17:23:00,
2013-04-12 13:33:00,86.0,78.0,29.92,SE,140,10.0,15.0,78,0.00,,,0.00,,2013-04-12 17:33:00,
2013-04-12 13:45:00,86.0,78.0,29.92,SE,140,10.0,15.0,78,0.00,,,0.00,,2013-04-12 17:45:00,
2013-04-12 14:06:00,86.0,78.0,29.92,SSE,158,8.0,12.0,78,0.00,,,0.00,,2013-04-12 18:06:00,
2013-04-12 15:26:00,87.0,78.0,29.90,South,170,11.0,13.0,76,0.00,,,0.00,,2013-04-12 19:26:00,
2013-04-12 15:27:00,87.0,78.0,29.90,South,170,11.0,13.0,76,0.00,,,0.00,,2013-04-12 19:27:00,
2013-04-12 15:32:00,87.0,78.0,29.89,SSE,153,8.0,12.0,74,0.00,,,0.00,,2013-04-12 19:32:00,
2013-04-12 15:43:00,87.0,78.0,29.89,SSE,153,8.0,12.0,74,0.00,,,0.00,,2013-04-12 19:43:00,
2013-04-12 15:53:00,87.0,78.0,29.88,SE,138,8.0,13.0,74,0.00,,,0.00,,2013-04-12 19:53:00,
2013-04-12 16:02:00,87.0,78.0,29.88,ESE,123,7.0,13.0,75,0.00,,,0.00,,2013-04-12 20:02:00,
2013-04-12 16:12:00,87.0,78.0,29.88,ESE,123,7.0,13.0,75,0.00,,,0.00,,2013-04-12 20:12:00,
2013-04-12 16:22:00,87.0,78.0,29.87,SSE,153,8.0,13.0,75,0.00,,,0.00,,2013-04-12 20:22:00,
2013-04-12 16:32:00,87.0,78.0,29.88,SE,136,8.0,14.0,75,0.00,,,0.00,,2013-04-12 20:32:00,
2013-04-12 16:42:00,87.0,78.0,29.88,SE,136,8.0,14.0,75,0.00,,,0.00,,2013-04-12 20:42:00,
2013-04-12 16:52:00,86.0,78.0,29.88,SSE,147,6.0,12.0,77,0.00,,,0.00,,2013-04-12 20:52:00,
2013-04-12 17:02:00,86.0,78.0,29.88,SSE,158,7.0,12.0,76,0.00,,,0.00,,2013-04-12 21:02:00,
2013-04-12 17:12:00,86.0,78.0,29.88,SSE,158,7.0,12.0,76,0.00,,,0.00,,2013-04-12 21:12:00,
2013-04-12 17:22:00,86.0,77.0,29.87,SSE,153,8.0,11.0,75,0.00,,,0.00,,2013-04-12 21:22:00,
2013-04-12 17:33:00,87.0,78.0,29.86,ESE,115,7.0,11.0,75,0.00,,,0.00,,2013-04-12 21:33:00,
2013-04-12 17:43:00,87.0,78.0,29.86,ESE,115,7.0,11.0,75,0.00,,,0.00,,2013-04-12 21:43:00,
2013-04-12 17:53:00,86.0,77.0,29.87,SSE,149,6.0,10.0,74,0.00,,,0.00,,2013-04-12 21:53:00,
2013-04-12 18:02:00,86.0,77.0,29.87,ESE,123,5.0,11.0,75,0.00,,,0.00,,2013-04-12 22:02:00,
2013-04-12 18:13:00,86.0,77.0,29.87,ESE,123,5.0,11.0,75,0.00,,,0.00,,2013-04-12 22:13:00,
2013-04-12 18:22:00,85.0,77.0,29.87,SE,129,6.0,10.0,76,0.00,,,0.00,,2013-04-12 22:22:00,
2013-04-12 18:32:00,85.0,77.0,29.87,East,79,5.0,10.0,77,0.00,,,0.00,,2013-04-12 22:32:00,
2013-04-12 18:42:00,85.0,77.0,29.87,East,79,5.0,10.0,77,0.00,,,0.00,,2013-04-12 22:42:00,
2013-04-12 18:52:00,83.0,76.0,29.87,SE,125,5.0,10.0,79,0.00,,,0.00,,2013-04-12 22:52:00,
2013-04-12 19:04:00,83.0,77.0,29.88,ESE,105,4.0,9.0,81,0.00,,,0.00,,2013-04-12 23:04:00,
2013-04-12 19:12:00,83.0,77.0,29.88,ESE,105,4.0,9.0,81,0.00,,,0.00,,2013-04-12 23:12:00,
2013-04-12 19:22:00,82.0,76.0,29.88,SE,131,5.0,10.0,82,0.00,,,0.00,,2013-04-12 23:22:00,
2013-04-12 19:32:00,82.0,76.0,29.88,SE,139,6.0,9.0,82,0.00,,,0.00,,2013-04-12 23:32:00,
2013-04-12 19:42:00,82.0,76.0,29.88,SE,139,6.0,9.0,82,0.00,,,0.00,,2013-04-12 23:42:00,
2013-04-12 19:52:00,82.0,77.0,29.89,ESE,115,6.0,11.0,84,0.00,,,0.00,,2013-04-12 23:52:00,
2013-04-12 20:02:00,81.0,76.0,29.90,East,96,5.0,8.0,85,0.00,,,0.00,,2013-04-13 00:02:00,
2013-04-12 20:12:00,81.0,76.0,29.90,East,96,5.0,8.0,85,0.00,,,0.00,,2013-04-13 00:12:00,
2013-04-12 20:22:00,81.0,76.0,29.91,East,92,5.0,9.0,86,0.00,,,0.00,,2013-04-13 00:22:00,
2013-04-12 20:32:00,81.0,76.0,29.91,SE,133,4.0,9.0,86,0.00,,,0.00,,2013-04-13 00:32:00,
2013-04-12 20:42:00,81.0,76.0,29.91,SE,133,4.0,9.0,86,0.00,,,0.00,,2013-04-13 00:42:00,
2013-04-12 20:52:00,80.0,76.0,29.92,ESE,117,5.0,10.0,87,0.00,,,0.00,,2013-04-13 00:52:00,
2013-04-12 21:02:00,80.0,76.0,29.92,ESE,116,5.0,9.0,87,0.00,,,0.00,,2013-04-13 01:02:00,
2013-04-12 21:13:00,80.0,76.0,29.92,ESE,116,5.0,9.0,87,0.00,,,0.00,,2013-04-13 01:13:00,
2013-04-12 21:22:00,80.0,76.0,29.93,East,93,6.0,10.0,88,0.00,,,0.00,,2013-04-13 01:22:00,
2013-04-12 21:32:00,80.0,76.0,29.93,ESE,107,5.0,8.0,88,0.00,,,0.00,,2013-04-13 01:32:00,
2013-04-12 21:42:00,80.0,76.0,29.93,ESE,107,5.0,8.0,88,0.00,,,0.00,,2013-04-13 01:42:00,
2013-04-12 21:52:00,80.0,76.0,29.93,SE,145,6.0,11.0,88,0.00,,,0.00,,2013-04-13 01:52:00,
2013-04-12 22:02:00,80.0,76.0,29.93,East,88,4.0,11.0,89,0.00,,,0.00,,2013-04-13 02:02:00,
2013-04-12 22:12:00,80.0,76.0,29.93,East,88,4.0,11.0,89,0.00,,,0.00,,2013-04-13 02:12:00,
2013-04-12 22:23:00,80.0,76.0,29.93,SSE,153,6.0,12.0,89,0.00,,,0.00,,2013-04-13 02:23:00,
2013-04-12 22:32:00,80.0,76.0,29.93,SSE,153,6.0,12.0,89,0.00,,,0.00,,2013-04-13 02:32:00,
2013-04-12 22:42:00,80.0,76.0,29.93,SSE,153,6.0,12.0,89,0.00,,,0.00,,2013-04-13 02:42:00,
2013-04-12 22:53:00,80.0,76.0,29.95,SSE,149,6.0,9.0,89,0.00,,,0.00,,2013-04-13 02:53:00,
2013-04-12 23:02:00,80.0,76.0,29.95,SSE,153,6.0,9.0,89,0.00,,,0.00,,2013-04-13 03:02:00,
2013-04-12 23:12:00,80.0,76.0,29.95,SSE,153,6.0,9.0,89,0.00,,,0.00,,2013-04-13 03:12:00,
2013-04-12 23:23:00,80.0,76.0,29.95,SSE,163,5.0,9.0,89,0.00,,,0.00,,2013-04-13 03:23:00,
2013-04-12 23:33:00,80.0,76.0,29.95,South,182,5.0,9.0,89,0.00,,,0.00,,2013-04-13 03:33:00,
2013-04-12 23:42:00,80.0,76.0,29.95,South,182,5.0,9.0,89,0.00,,,0.00,,2013-04-13 03:42:00,
2013-04-12 23:54:00,80.0,76.0,29.96,ESE,122,2.0,5.0,89,0.00,,,0.00,,2013-04-13 03:54:00,